createdAt,value
2019-05-16T00:02:28.350Z,0.70
2019-05-16T00:04:58.996Z,0.70
2019-05-16T00:07:28.347Z,0.70
2019-05-16T00:09:58.853Z,0.60
2019-05-16T00:12:28.977Z,0.80
2019-05-16T00:14:58.152Z,0.80
2019-05-16T00:17:28.464Z,0.60
2019-05-16T00:19:58.745Z,0.60
2019-05-16T00:22:28.581Z,0.70
2019-05-16T00:24:58.032Z,0.80
2019-05-16T00:27:28.118Z,0.80
2019-05-16T00:29:58.169Z,0.90
2019-05-16T00:32:28.213Z,0.80
2019-05-16T00:34:58.374Z,0.90
2019-05-16T00:37:28.528Z,0.80
2019-05-16T00:39:58.628Z,0.70
2019-05-16T00:42:28.652Z,0.67
2019-05-16T00:44:58.327Z,0.70
2019-05-16T00:47:28.417Z,0.77
2019-05-16T00:49:58.194Z,0.60
2019-05-16T00:52:28.832Z,0.63
2019-05-16T00:54:58.008Z,0.70
2019-05-16T00:57:28.161Z,0.90
2019-05-16T00:59:59.041Z,0.60
2019-05-16T01:02:28.760Z,0.70
2019-05-16T01:04:58.844Z,0.60
2019-05-16T01:07:27.745Z,0.77
2019-05-16T01:09:58.346Z,0.70
2019-05-16T01:12:28.363Z,0.80
2019-05-16T01:14:58.431Z,0.70
2019-05-16T01:17:28.316Z,0.80
2019-05-16T01:19:57.892Z,0.80
2019-05-16T01:22:26.108Z,0.90
2019-05-16T01:24:54.125Z,0.80
2019-05-16T01:27:22.255Z,0.70
2019-05-16T01:29:50.286Z,0.80
2019-05-16T01:32:19.005Z,0.70
2019-05-16T01:34:48.325Z,0.73
2019-05-16T01:37:18.487Z,0.77
2019-05-16T01:39:48.378Z,0.80
2019-05-16T01:42:18.448Z,0.67
2019-05-16T01:44:48.663Z,0.70
2019-05-16T01:47:18.261Z,0.80
2019-05-16T01:49:48.688Z,0.80
2019-05-16T01:52:17.891Z,0.80
2019-05-16T01:54:48.000Z,0.80
2019-05-16T01:57:18.093Z,0.80
2019-05-16T01:59:48.387Z,0.73
2019-05-16T02:02:18.315Z,0.70
2019-05-16T02:04:48.370Z,0.70
2019-05-16T02:07:18.639Z,0.70
2019-05-16T02:09:47.682Z,1.00
2019-05-16T02:12:18.448Z,0.60
2019-05-16T02:14:48.143Z,0.80
2019-05-16T02:17:18.425Z,0.60
2019-05-16T02:19:48.391Z,0.67
2019-05-16T02:22:17.910Z,0.83
2019-05-16T02:24:48.007Z,0.80
2019-05-16T02:27:18.060Z,0.70
2019-05-16T02:29:46.050Z,0.80
2019-05-16T02:32:14.127Z,0.70
2019-05-16T02:34:42.179Z,0.80
2019-05-16T02:37:23.712Z,0.90
2019-05-16T02:39:40.913Z,0.80
2019-05-16T02:42:11.835Z,0.73
2019-05-16T02:44:41.215Z,0.80
2019-05-16T02:47:11.511Z,0.87
2019-05-16T02:49:41.959Z,0.90
2019-05-16T02:52:10.830Z,0.90
2019-05-16T02:54:41.293Z,0.77
2019-05-16T02:57:11.266Z,0.80
2019-05-16T02:59:41.536Z,1.00
2019-05-16T03:02:11.437Z,0.70
2019-05-16T03:04:43.733Z,0.80
2019-05-16T03:07:13.530Z,0.70
2019-05-16T03:09:42.461Z,0.70
2019-05-16T03:12:12.218Z,0.80
2019-05-16T03:14:42.038Z,0.83
2019-05-16T03:17:14.344Z,1.10
2019-05-16T03:19:44.448Z,0.90
2019-05-16T03:22:16.965Z,1.07
2019-05-16T03:24:45.636Z,1.00
2019-05-16T03:27:14.344Z,0.90
2019-05-16T03:29:42.354Z,1.00
2019-05-16T03:32:14.153Z,1.10
2019-05-16T03:34:43.986Z,1.00
2019-05-16T03:37:14.371Z,1.00
2019-05-16T03:39:40.753Z,1.10
2019-05-16T03:42:09.072Z,1.00
2019-05-16T03:44:40.876Z,1.10
2019-05-16T03:47:07.522Z,1.00
2019-05-16T03:49:35.997Z,1.00
2019-05-16T03:52:05.365Z,0.97
2019-05-16T03:54:33.827Z,0.90
2019-05-16T03:57:01.856Z,0.93
2019-05-16T03:59:31.450Z,1.07
2019-05-16T04:02:01.533Z,0.90
2019-05-16T04:04:31.506Z,0.80
2019-05-16T04:07:01.398Z,0.87
2019-05-16T04:09:31.511Z,0.90
2019-05-16T04:12:01.898Z,0.90
2019-05-16T04:14:32.216Z,0.80
2019-05-16T04:17:01.327Z,0.83
2019-05-16T04:19:31.397Z,0.90
2019-05-16T04:22:01.389Z,0.83
2019-05-16T04:24:31.831Z,0.73
2019-05-16T04:27:01.104Z,1.00
2019-05-16T04:29:31.600Z,0.90
2019-05-16T04:32:01.441Z,0.90
2019-05-16T04:34:31.493Z,0.90
2019-05-16T04:37:01.111Z,0.90
2019-05-16T04:39:31.966Z,1.00
2019-05-16T04:42:01.619Z,0.90
2019-05-16T04:44:31.037Z,0.87
2019-05-16T04:47:01.358Z,1.07
2019-05-16T04:49:31.914Z,0.93
2019-05-16T04:52:00.806Z,0.80
2019-05-16T04:54:30.747Z,0.90
2019-05-16T04:57:01.555Z,0.90
2019-05-16T04:59:31.239Z,0.90
2019-05-16T05:02:02.143Z,1.13
2019-05-16T05:04:31.260Z,0.90
2019-05-16T05:07:00.553Z,1.17
2019-05-16T05:09:31.585Z,1.00
2019-05-16T05:12:04.066Z,0.90
2019-05-16T05:14:30.805Z,0.90
2019-05-16T05:17:01.465Z,0.90
2019-05-16T05:19:30.732Z,1.10
2019-05-16T05:22:01.298Z,1.10
2019-05-16T05:24:30.270Z,0.90
2019-05-16T05:26:59.822Z,0.97
2019-05-16T05:29:30.554Z,1.00
2019-05-16T05:32:03.527Z,0.90
2019-05-16T05:34:30.370Z,1.10
2019-05-16T05:37:00.263Z,0.93
2019-05-16T05:39:30.331Z,1.13
2019-05-16T05:42:00.115Z,1.07
2019-05-16T05:44:30.555Z,1.07
2019-05-16T05:47:00.561Z,1.10
2019-05-16T05:49:30.838Z,0.80
2019-05-16T05:52:00.825Z,0.80
2019-05-16T05:54:30.884Z,0.97
2019-05-16T05:57:00.665Z,0.83
2019-05-16T05:59:30.734Z,0.97
2019-05-16T06:02:00.848Z,1.10
2019-05-16T06:04:30.534Z,0.90
2019-05-16T06:07:01.118Z,0.90
2019-05-16T06:09:32.861Z,1.20
2019-05-16T06:12:00.739Z,1.10
2019-05-16T06:14:30.647Z,1.10
2019-05-16T06:17:00.347Z,1.20
2019-05-16T06:19:29.905Z,1.10
2019-05-16T06:21:57.917Z,1.30
2019-05-16T06:24:25.983Z,1.23
2019-05-16T06:26:53.978Z,1.40
2019-05-16T06:29:22.356Z,1.20
2019-05-16T06:31:50.410Z,1.10
2019-05-16T06:34:20.971Z,1.30
2019-05-16T06:36:50.980Z,1.30
2019-05-16T06:39:19.932Z,1.30
2019-05-16T06:41:50.679Z,1.17
2019-05-16T06:44:20.126Z,1.40
2019-05-16T06:47:00.301Z,1.63
2019-05-16T06:49:19.731Z,1.60
2019-05-16T06:51:48.143Z,1.27
2019-05-16T06:54:16.220Z,1.50
2019-05-16T06:56:44.203Z,1.57
2019-05-16T06:59:12.401Z,1.30
2019-05-16T07:01:40.596Z,1.30
2019-05-16T07:04:10.496Z,1.57
2019-05-16T07:06:54.615Z,1.13
2019-05-16T07:09:10.571Z,1.23
2019-05-16T07:11:39.741Z,1.50
2019-05-16T07:14:10.530Z,1.53
2019-05-16T07:16:40.289Z,1.40
2019-05-16T07:19:10.485Z,1.60
2019-05-16T07:21:39.697Z,1.50
2019-05-16T07:24:07.990Z,1.50
2019-05-16T07:26:35.993Z,1.73
2019-05-16T07:29:04.517Z,1.80
2019-05-16T07:31:33.564Z,1.63
2019-05-16T07:34:02.025Z,1.63
2019-05-16T07:36:31.440Z,1.87
2019-05-16T07:39:00.028Z,1.93
2019-05-16T07:41:30.876Z,1.90
2019-05-16T07:44:00.735Z,1.60
2019-05-16T07:46:31.536Z,1.87
2019-05-16T07:49:01.220Z,1.60
2019-05-16T07:51:31.069Z,1.50
2019-05-16T07:53:59.830Z,1.67
2019-05-16T07:56:31.069Z,1.50
2019-05-16T07:59:00.916Z,1.80
2019-05-16T08:01:30.709Z,1.70
2019-05-16T08:04:00.007Z,1.57
2019-05-16T08:06:33.685Z,1.77
2019-05-16T08:09:00.221Z,1.73
2019-05-16T08:11:30.443Z,1.70
2019-05-16T08:13:58.124Z,1.50
2019-05-16T08:16:26.379Z,1.93
2019-05-16T08:18:54.370Z,1.80
2019-05-16T08:21:22.440Z,1.40
2019-05-16T08:23:50.703Z,1.77
2019-05-16T08:26:21.818Z,1.80
2019-05-16T08:28:50.349Z,1.83
2019-05-16T08:33:54.171Z,1.63
2019-05-16T08:36:21.289Z,2.00
2019-05-16T08:41:22.132Z,1.70
2019-05-16T08:43:53.434Z,1.73
2019-05-16T08:46:20.713Z,1.87
2019-05-16T08:48:54.011Z,1.73
2019-05-16T08:51:22.192Z,1.67
2019-05-16T08:53:50.599Z,1.57
2019-05-16T08:56:22.050Z,1.87
2019-05-16T08:58:53.994Z,1.83
2019-05-16T09:01:21.732Z,1.73
2019-05-16T09:03:51.837Z,1.50
2019-05-16T09:08:51.425Z,1.70
2019-05-16T09:10:19.014Z,1.70
2019-05-16T09:10:20.964Z,1.70
2019-05-16T09:10:40.277Z,1.80
2019-05-16T09:11:39.148Z,1.87
2019-05-16T09:13:49.771Z,1.67
2019-05-16T09:16:18.408Z,1.83
2019-05-16T09:18:46.577Z,1.70
2019-05-16T09:21:17.975Z,2.00
2019-05-16T09:23:46.937Z,1.80
2019-05-16T09:26:19.654Z,1.80
2019-05-16T09:28:48.190Z,1.90
2019-05-16T09:31:17.840Z,1.93
2019-05-16T09:33:47.440Z,1.90
2019-05-16T09:36:17.441Z,2.00
2019-05-16T09:38:48.535Z,2.00
2019-05-16T09:41:16.884Z,2.10
2019-05-16T09:43:49.243Z,1.80
2019-05-16T09:46:17.183Z,2.23
2019-05-16T09:48:47.746Z,2.20
2019-05-16T09:51:17.313Z,1.83
2019-05-16T09:53:47.156Z,1.90
2019-05-16T09:56:16.858Z,2.00
2019-05-16T09:58:46.767Z,1.87
2019-05-16T10:01:17.375Z,2.00
2019-05-16T10:03:47.694Z,1.80
2019-05-16T10:06:19.236Z,1.97
2019-05-16T10:08:46.507Z,1.90
2019-05-16T10:11:17.818Z,1.83
2019-05-16T10:13:47.141Z,1.90
2019-05-16T10:16:16.736Z,2.17
2019-05-16T10:18:47.724Z,2.10
2019-05-16T10:21:19.904Z,1.93
2019-05-16T10:23:46.945Z,2.00
2019-05-16T10:26:17.252Z,1.77
2019-05-16T10:28:46.787Z,1.90
2019-05-16T10:31:17.599Z,2.00
2019-05-16T10:33:47.825Z,2.03
2019-05-16T10:36:17.330Z,2.30
2019-05-16T10:38:48.333Z,1.83
2019-05-16T10:41:16.293Z,1.73
2019-05-16T10:43:44.447Z,1.97
2019-05-16T10:46:17.597Z,1.83
2019-05-16T10:48:46.902Z,2.00
2019-05-16T10:51:17.034Z,1.97
2019-05-16T10:54:02.476Z,2.00
2019-05-16T10:56:15.037Z,2.00
2019-05-16T10:58:59.608Z,2.10
2019-05-16T11:01:24.261Z,1.90
2019-05-16T11:03:43.230Z,1.90
2019-05-16T11:06:24.662Z,1.73
2019-05-16T11:08:41.479Z,1.70
2019-05-16T11:11:10.920Z,1.57
2019-05-16T11:13:39.220Z,1.53
2019-05-16T11:16:09.610Z,1.60
2019-05-16T11:18:37.963Z,1.93
2019-05-16T11:21:07.322Z,1.83
2019-05-16T11:23:36.722Z,1.60
2019-05-16T11:26:05.067Z,1.60
2019-05-16T11:28:36.862Z,1.63
2019-05-16T11:31:07.856Z,1.80
2019-05-16T11:33:37.018Z,1.73
2019-05-16T11:36:08.132Z,1.57
2019-05-16T11:38:37.884Z,1.50
2019-05-16T11:41:07.384Z,1.47
2019-05-16T11:43:36.684Z,1.70
2019-05-16T11:46:05.176Z,1.07
2019-05-16T11:48:33.242Z,1.20
2019-05-16T11:51:01.369Z,1.30
2019-05-16T11:53:29.426Z,1.30
2019-05-16T11:56:01.707Z,1.43
2019-05-16T11:58:27.921Z,1.60
2019-05-16T12:00:57.445Z,1.27
2019-05-16T12:03:28.145Z,1.30
2019-05-16T12:05:58.033Z,1.60
2019-05-16T12:08:26.853Z,1.50
2019-05-16T12:10:55.474Z,1.47
2019-05-16T12:13:29.642Z,1.47
2019-05-16T12:15:53.777Z,1.40
2019-05-16T12:18:21.884Z,1.60
2019-05-16T12:20:50.173Z,1.60
2019-05-16T12:23:19.038Z,1.60
2019-05-16T12:25:47.705Z,1.40
2019-05-16T12:28:16.852Z,1.37
2019-05-16T12:30:47.252Z,1.40
2019-05-16T12:33:18.349Z,1.30
2019-05-16T12:35:47.467Z,1.30
2019-05-16T12:38:16.994Z,1.13
2019-05-16T12:40:47.950Z,1.50
2019-05-16T12:43:18.111Z,1.50
2019-05-16T12:45:47.292Z,1.10
2019-05-16T12:48:19.915Z,1.23
2019-05-16T12:50:48.009Z,1.10
2019-05-16T12:53:16.660Z,1.20
2019-05-16T12:55:47.356Z,1.10
2019-05-16T12:58:20.091Z,1.20
2019-05-16T13:00:54.004Z,1.10
2019-05-16T13:03:15.313Z,1.00
2019-05-16T13:05:43.639Z,1.07
2019-05-16T13:08:11.689Z,1.13
2019-05-16T13:10:40.153Z,0.90
2019-05-16T13:13:08.372Z,0.93
2019-05-16T13:15:37.909Z,0.83
2019-05-16T13:18:07.878Z,0.80
2019-05-16T13:20:41.144Z,1.00
2019-05-16T13:23:14.407Z,0.80
2019-05-16T13:25:39.535Z,1.00
2019-05-16T13:28:08.753Z,1.00
2019-05-16T13:30:37.810Z,0.90
2019-05-16T13:33:07.224Z,0.90
2019-05-16T13:35:37.035Z,0.90
2019-05-16T13:38:07.812Z,1.07
2019-05-16T13:40:37.126Z,1.10
2019-05-16T13:43:09.498Z,1.23
2019-05-16T13:45:37.769Z,0.93
2019-05-16T13:48:08.142Z,1.10
2019-05-16T13:50:39.650Z,0.80
2019-05-16T13:53:07.906Z,0.93
2019-05-16T13:55:37.849Z,1.00
2019-05-16T13:58:07.713Z,0.80
2019-05-16T14:00:37.591Z,0.90
2019-05-16T14:03:07.338Z,1.00
2019-05-16T14:05:38.085Z,1.10
2019-05-16T14:08:06.784Z,1.10
2019-05-16T14:10:37.488Z,1.20
2019-05-16T14:13:07.729Z,0.97
2019-05-16T14:15:36.734Z,0.97
2019-05-16T14:18:07.827Z,1.10
2019-05-16T14:20:38.032Z,1.10
2019-05-16T14:23:08.429Z,0.73
2019-05-16T14:25:37.873Z,0.90
2019-05-16T14:28:07.658Z,1.00
2019-05-16T14:30:37.757Z,0.80
2019-05-16T14:33:12.911Z,1.50
2019-05-16T14:35:37.626Z,0.97
2019-05-16T14:38:06.549Z,0.90
2019-05-16T14:40:37.109Z,0.83
2019-05-16T14:43:07.832Z,0.90
2019-05-16T14:45:37.002Z,0.97
2019-05-16T14:48:07.659Z,0.70
2019-05-16T14:50:37.546Z,1.00
2019-05-16T14:53:07.400Z,0.97
2019-05-16T14:55:38.102Z,0.80
2019-05-16T14:58:07.373Z,0.87
2019-05-16T15:00:38.304Z,1.00
2019-05-16T15:03:08.302Z,1.10
2019-05-16T15:05:42.729Z,0.80
2019-05-16T15:08:08.128Z,0.70
2019-05-16T15:10:38.902Z,0.70
2019-05-16T15:13:07.910Z,0.73
2019-05-16T15:15:37.654Z,0.73
2019-05-16T15:18:08.229Z,0.70
2019-05-16T15:20:37.148Z,0.80
2019-05-16T15:23:07.679Z,0.83
2019-05-16T15:25:37.460Z,0.77
2019-05-16T15:28:07.535Z,1.00
2019-05-16T15:30:39.427Z,1.10
2019-05-16T15:33:08.614Z,0.90
2019-05-16T15:36:16.533Z,0.90
2019-05-16T15:38:50.712Z,0.93
2019-05-16T15:41:18.835Z,0.90
2019-05-16T15:43:48.796Z,0.90
2019-05-16T15:46:17.450Z,0.90
2019-05-16T15:48:48.679Z,0.77
2019-05-16T15:51:20.819Z,0.90
2019-05-16T15:53:46.985Z,0.90
2019-05-16T15:56:17.806Z,0.83
2019-05-16T15:58:46.737Z,1.10
2019-05-16T16:01:14.934Z,0.80
2019-05-16T16:03:43.219Z,1.20
2019-05-16T16:06:12.112Z,0.90
2019-05-16T16:08:40.657Z,0.80
2019-05-16T16:11:09.006Z,0.80
2019-05-16T16:13:37.672Z,0.73
2019-05-16T16:16:10.180Z,0.90
2019-05-16T16:18:38.906Z,0.70
2019-05-16T16:21:07.701Z,1.00
2019-05-16T16:23:37.228Z,0.93
2019-05-16T16:26:07.109Z,0.83
2019-05-16T16:28:38.263Z,0.90
2019-05-16T16:31:07.582Z,0.83
2019-05-16T16:33:37.452Z,0.80
2019-05-16T16:36:08.057Z,0.87
2019-05-16T16:38:37.427Z,0.80
2019-05-16T16:41:07.791Z,1.00
2019-05-16T16:43:37.241Z,1.10
2019-05-16T16:46:12.541Z,1.00
2019-05-16T16:48:39.236Z,1.00
2019-05-16T16:51:07.460Z,1.10
2019-05-16T16:53:37.904Z,0.90
2019-05-16T16:56:07.455Z,1.00
2019-05-16T16:58:37.264Z,1.10
2019-05-16T17:01:07.387Z,1.10
2019-05-16T17:03:36.464Z,1.10
2019-05-16T17:06:05.056Z,1.10
2019-05-16T17:08:33.320Z,0.80
2019-05-16T17:11:02.667Z,0.70
2019-05-16T17:13:30.782Z,0.80
2019-05-16T17:15:59.146Z,0.77
2019-05-16T17:18:27.921Z,0.87
2019-05-16T17:20:56.964Z,0.70
2019-05-16T17:23:26.401Z,0.70
2019-05-16T17:25:56.722Z,0.80
2019-05-16T17:28:26.656Z,0.70
2019-05-16T17:30:56.653Z,0.70
2019-05-16T17:33:28.279Z,0.90
2019-05-16T17:35:55.558Z,0.93
2019-05-16T17:38:23.689Z,0.60
2019-05-16T17:40:51.713Z,0.60
2019-05-16T17:43:19.636Z,0.70
2019-05-16T17:45:47.720Z,0.77
2019-05-16T17:48:17.664Z,0.80
2019-05-16T17:50:46.752Z,0.70
2019-05-16T17:53:17.301Z,0.80
2019-05-16T17:55:47.366Z,1.00
2019-05-16T17:58:17.621Z,0.90
2019-05-16T18:00:47.065Z,0.80
2019-05-16T18:03:17.343Z,0.77
2019-05-16T18:05:47.519Z,0.70
2019-05-16T18:08:17.577Z,0.80
2019-05-16T18:10:47.240Z,0.83
2019-05-16T18:13:15.688Z,0.60
2019-05-16T18:15:43.846Z,0.80
2019-05-16T18:18:12.707Z,0.90
2019-05-16T18:20:54.494Z,0.80
2019-05-16T18:23:11.041Z,0.80
2019-05-16T18:25:39.458Z,0.83
2019-05-16T18:28:08.880Z,0.60
2019-05-16T18:30:39.212Z,0.60
2019-05-16T18:33:07.722Z,0.70
2019-05-16T18:35:37.003Z,0.70
2019-05-16T18:38:07.389Z,0.70
2019-05-16T18:40:37.893Z,0.80
2019-05-16T18:43:08.347Z,0.80
2019-05-16T18:45:36.778Z,0.60
2019-05-16T18:48:07.398Z,0.80
2019-05-16T18:50:37.520Z,0.70
2019-05-16T18:53:07.024Z,0.97
2019-05-16T18:55:38.133Z,0.80
2019-05-16T18:58:08.509Z,0.80
2019-05-16T19:00:37.580Z,1.00
2019-05-16T19:03:07.661Z,1.00
2019-05-16T19:05:37.285Z,0.97
2019-05-16T19:08:07.420Z,1.10
2019-05-16T19:10:36.702Z,1.10
2019-05-16T19:13:08.143Z,0.93
2019-05-16T19:15:37.427Z,1.10
2019-05-16T19:18:06.547Z,1.10
2019-05-16T19:20:37.177Z,1.00
2019-05-16T19:23:07.519Z,1.00
2019-05-16T19:25:35.563Z,1.20
2019-05-16T19:28:06.923Z,1.17
2019-05-16T19:30:37.333Z,1.10
2019-05-16T19:33:06.890Z,1.40
2019-05-16T19:35:35.437Z,1.20
2019-05-16T19:38:03.672Z,1.20
2019-05-16T19:40:31.835Z,1.10
2019-05-16T19:42:59.907Z,1.13
2019-05-16T19:45:28.309Z,1.03
2019-05-16T19:47:57.813Z,1.10
2019-05-16T19:50:26.719Z,1.20
2019-05-16T19:52:56.724Z,1.10
2019-05-16T19:55:27.026Z,1.17
2019-05-16T19:57:57.189Z,1.50
2019-05-16T20:00:26.574Z,1.27
2019-05-16T20:02:56.952Z,1.33
2019-05-16T20:05:26.658Z,1.47
2019-05-16T20:07:54.816Z,1.37
2019-05-16T20:10:23.151Z,1.13
2019-05-16T20:12:51.405Z,1.30
2019-05-16T20:15:19.557Z,1.20
2019-05-16T20:17:58.546Z,1.40
2019-05-16T20:20:19.291Z,1.20
2019-05-16T20:22:47.449Z,1.33
2019-05-16T20:25:17.041Z,1.20
2019-05-16T20:27:47.016Z,1.33
2019-05-16T20:30:17.056Z,1.17
2019-05-16T20:32:45.552Z,1.30
2019-05-16T20:35:14.293Z,1.23
2019-05-16T20:37:42.475Z,1.13
2019-05-16T20:40:13.469Z,1.30
2019-05-16T20:42:42.678Z,1.10
2019-05-16T20:45:11.456Z,1.40
2019-05-16T20:47:40.801Z,1.17
2019-05-16T20:50:11.975Z,1.20
2019-05-16T20:52:40.315Z,1.20
2019-05-16T20:55:09.433Z,1.10
2019-05-16T20:57:37.998Z,1.27
2019-05-16T21:00:08.283Z,1.20
2019-05-16T21:02:37.783Z,1.10
2019-05-16T21:05:09.154Z,1.17
2019-05-16T21:07:37.739Z,1.03
2019-05-16T21:10:07.926Z,1.20
2019-05-16T21:12:40.285Z,1.30
2019-05-16T21:15:09.248Z,1.20
2019-05-16T21:17:37.305Z,1.10
2019-05-16T21:20:07.907Z,1.10
2019-05-16T21:22:37.075Z,1.10
2019-05-16T21:25:06.247Z,1.10
2019-05-16T21:27:34.351Z,1.40
2019-05-16T21:30:04.176Z,1.20
2019-05-16T21:32:32.641Z,1.20
2019-05-16T21:35:00.689Z,1.10
2019-05-16T21:37:28.850Z,1.00
2019-05-16T21:39:59.763Z,1.20
2019-05-16T21:42:27.225Z,1.13
2019-05-16T21:44:57.008Z,1.10
2019-05-16T21:47:27.530Z,0.93
2019-05-16T21:49:56.868Z,1.20
2019-05-16T21:52:28.531Z,1.00
2019-05-16T21:54:56.550Z,1.10
2019-05-16T21:57:26.878Z,1.20
2019-05-16T21:59:57.157Z,1.00
2019-05-16T22:02:26.529Z,1.10
2019-05-16T22:04:56.822Z,1.00
2019-05-16T22:07:33.121Z,1.20
2019-05-16T22:09:57.090Z,0.97
2019-05-16T22:12:26.599Z,1.07
2019-05-16T22:14:57.162Z,1.10
2019-05-16T22:17:27.569Z,1.00
2019-05-16T22:19:56.427Z,1.30
2019-05-16T22:22:27.606Z,1.10
2019-05-16T22:24:57.072Z,1.10
2019-05-16T22:27:26.949Z,1.23
2019-05-16T22:29:56.806Z,1.40
2019-05-16T22:32:27.060Z,1.33
2019-05-16T22:34:59.874Z,1.30
2019-05-16T22:37:29.759Z,1.33
2019-05-16T22:39:59.755Z,1.33
2019-05-16T22:42:30.153Z,1.13
2019-05-16T22:44:58.199Z,1.20
2019-05-16T22:47:26.681Z,1.40
2019-05-16T22:49:56.715Z,1.37
2019-05-16T22:52:26.591Z,1.30
2019-05-16T22:54:56.682Z,1.40
2019-05-16T22:57:26.920Z,1.20
2019-05-16T22:59:56.904Z,1.20
2019-05-16T23:02:27.418Z,1.10
2019-05-16T23:04:56.615Z,1.60
2019-05-16T23:07:27.379Z,1.23
2019-05-16T23:09:56.418Z,1.20
2019-05-16T23:12:26.634Z,1.23
2019-05-16T23:14:56.964Z,1.20
2019-05-16T23:17:26.704Z,1.10
2019-05-16T23:19:56.811Z,1.23
2019-05-16T23:22:27.358Z,1.00
2019-05-16T23:24:57.029Z,1.30
2019-05-16T23:27:27.141Z,1.00
2019-05-16T23:29:56.791Z,1.20
2019-05-16T23:32:27.002Z,1.20
2019-05-16T23:34:57.246Z,1.20
2019-05-16T23:37:27.443Z,1.07
2019-05-16T23:39:56.864Z,1.13
2019-05-16T23:42:26.397Z,0.97
2019-05-16T23:44:56.750Z,1.10
2019-05-16T23:47:25.318Z,1.30
2019-05-16T23:49:53.587Z,1.20
2019-05-16T23:52:23.457Z,1.20
2019-05-16T23:54:51.894Z,1.20
2019-05-16T23:57:20.187Z,1.27
2019-05-16T23:59:48.941Z,1.20
